Time;durP1;ratioP1;P1;durP2;ratioP2;P2;SDS_P1;SDS_P2;PMS_P1;PMS_P2;Temp;Humidity;BMP_temperature;BMP_pressure;BME280_temperature;BME280_humidity;BME280_pressure;Samples;Min_cycle;Max_cycle;Signal;HPM_P1;HPM_P2
2023/07/02 00:00:26;;;;;;;52.13;3.87;;;;;;;24.99;60.49;98402.78;7316775;19;129393;-39
2023/07/02 00:02:51;;;;;;;47.50;3.47;;;;;;;24.98;60.69;98401.97;7316075;19;129839;-39
2023/07/02 00:05:17;;;;;;;17.77;2.00;;;;;;;24.87;60.63;98385.88;7314895;19;129178;-42
2023/07/02 00:07:43;;;;;;;35.92;2.58;;;;;;;24.98;60.67;98401.13;7314913;19;129471;-41
2023/07/02 00:10:10;;;;;;;22.53;1.97;;;;;;;24.98;60.33;98398.50;7316322;19;130030;-41
2023/07/02 00:12:36;;;;;;;27.25;2.15;;;;;;;24.96;61.07;98400.50;7316962;19;129048;-39
2023/07/02 00:15:01;;;;;;;32.87;2.63;;;;;;;24.89;60.91;98391.78;7315883;19;129225;-42
2023/07/02 00:17:26;;;;;;;49.87;3.47;;;;;;;24.98;60.55;98406.41;7314234;19;129486;-41
2023/07/02 00:19:52;;;;;;;13.27;1.43;;;;;;;24.97;60.63;98410.88;7316549;19;129132;-42
2023/07/02 00:22:17;;;;;;;33.40;2.80;;;;;;;24.97;60.31;98410.03;7316510;19;129550;-41
2023/07/02 00:24:43;;;;;;;41.60;2.93;;;;;;;24.97;60.88;98402.97;7316188;19;129388;-41
2023/07/02 00:27:08;;;;;;;27.87;2.23;;;;;;;24.98;60.68;98406.41;7315416;19;129405;-41
2023/07/02 00:29:33;;;;;;;28.80;2.63;;;;;;;24.98;60.43;98401.13;7316567;19;129171;-42
2023/07/02 00:31:59;;;;;;;27.50;2.20;;;;;;;24.95;61.00;98399.72;7316307;19;129595;-41
2023/07/02 00:34:24;;;;;;;30.37;2.53;;;;;;;24.88;60.44;98384.88;7316287;19;129164;-41
2023/07/02 00:36:50;;;;;;;28.60;2.60;;;;;;;24.98;60.32;98406.41;7315754;19;129901;-40
2023/07/02 00:39:17;;;;;;;36.00;2.97;;;;;;;24.98;60.67;98401.97;7315264;19;130341;-40
2023/07/02 00:41:46;;;;;;;24.45;1.95;;;;;;;24.97;61.14;98399.53;7316499;19;128785;-39
2023/07/02 00:44:12;;;;;;;29.90;2.38;;;;;;;24.97;61.15;98410.03;7316326;19;129314;-39
2023/07/02 00:46:37;;;;;;;24.60;2.28;;;;;;;24.94;60.72;98405.97;7317255;19;129561;-41
2023/07/02 00:49:05;;;;;;;37.47;2.83;;;;;;;24.98;60.91;98409.03;7315681;19;129223;-40
2023/07/02 00:51:30;;;;;;;31.25;2.70;;;;;;;24.97;60.42;98404.78;7316030;19;129147;-41
2023/07/02 00:53:58;;;;;;;37.23;3.00;;;;;;;24.96;60.50;98403.97;7315893;19;129850;-41
2023/07/02 00:56:25;;;;;;;25.73;2.17;;;;;;;24.97;60.47;98410.03;7315153;19;129547;-41
2023/07/02 00:58:58;;;;;;;44.92;3.22;;;;;;;24.97;60.90;98410.03;7314729;19;129367;-40
2023/07/02 01:01:25;;;;;;;35.00;2.92;;;;;;;24.96;60.46;98406.59;7314677;19;129018;-40
2023/07/02 01:04:02;;;;;;;32.67;2.78;;;;;;;24.99;60.56;98413.31;7316168;19;129157;-40
2023/07/02 01:06:40;;;;;;;48.93;3.40;;;;;;;24.99;60.45;98410.66;7312593;19;129589;-41
2023/07/02 01:09:07;;;;;;;31.60;2.38;;;;;;;24.97;60.45;98404.78;7315392;19;130903;-41
2023/07/02 01:11:42;;;;;;;16.75;1.55;;;;;;;24.99;60.84;98408.84;7314675;19;130676;-42
2023/07/02 01:14:16;;;;;;;32.85;2.38;;;;;;;24.99;61.10;98405.41;7316386;19;129258;-40
2023/07/02 01:16:43;;;;;;;25.02;1.90;;;;;;;24.94;61.09;98395.44;7315603;19;130131;-40
2023/07/02 01:19:20;;;;;;;25.33;2.08;;;;;;;24.98;60.52;98390.63;7315306;19;129782;-41
2023/07/02 01:21:48;;;;;;;23.05;1.95;;;;;;;24.88;60.42;98382.25;7315361;19;129139;-41
2023/07/02 01:24:14;;;;;;;28.48;2.15;;;;;;;24.98;61.17;98390.63;7314512;19;129008;-39
2023/07/02 01:26:40;;;;;;;12.03;1.30;;;;;;;24.97;61.12;98389.00;7314244;19;130034;-41
2023/07/02 01:29:19;;;;;;;22.37;2.03;;;;;;;24.99;61.21;98389.63;7313452;19;128943;-42
2023/07/02 01:31:45;;;;;;;23.63;2.00;;;;;;;24.96;60.67;98387.34;7314716;19;128824;-39
2023/07/02 01:34:11;;;;;;;27.23;2.53;;;;;;;24.96;60.40;98388.19;7315884;19;128984;-40
2023/07/02 01:36:37;;;;;;;30.20;2.07;;;;;;;24.97;60.88;98394.25;7314120;19;129738;-39
2023/07/02 01:39:03;;;;;;;24.80;2.10;;;;;;;24.98;60.30;98393.25;7315106;19;129360;-41
2023/07/02 01:41:28;;;;;;;32.97;2.57;;;;;;;24.98;60.66;98401.13;7313310;19;129616;-39
2023/07/02 01:43:54;;;;;;;38.87;2.87;;;;;;;24.97;60.76;98389.00;7314717;19;129452;-42
2023/07/02 01:46:20;;;;;;;27.20;2.17;;;;;;;24.97;60.74;98389.00;7312092;19;130029;-41
2023/07/02 01:48:45;;;;;;;34.88;2.60;;;;;;;24.98;60.78;98395.88;7311379;19;129343;-40
2023/07/02 01:51:11;;;;;;;23.70;2.00;;;;;;;24.98;60.70;98401.13;7313578;19;128832;-39
2023/07/02 01:53:36;;;;;;;25.67;2.10;;;;;;;24.99;61.01;98400.16;7314928;19;129429;-42
2023/07/02 01:56:02;;;;;;;38.27;2.70;;;;;;;24.98;60.46;98401.13;7314192;19;130204;-42
2023/07/02 01:58:27;;;;;;;44.07;3.20;;;;;;;24.97;61.06;98404.78;7312139;19;129488;-41
2023/07/02 02:00:52;;;;;;;31.43;2.40;;;;;;;24.98;60.86;98401.13;7313282;19;129230;-42
2023/07/02 02:03:18;;;;;;;43.77;3.30;;;;;;;24.99;60.37;98405.41;7314008;19;129045;-40
2023/07/02 02:05:43;;;;;;;10.23;1.17;;;;;;;24.97;61.06;98399.53;7311719;19;130168;-41
2023/07/02 02:08:08;;;;;;;21.77;1.80;;;;;;;24.97;60.79;98397.72;7312270;19;129280;-42
2023/07/02 02:10:33;;;;;;;47.90;3.37;;;;;;;24.99;60.97;98402.78;7312671;19;129200;-41
2023/07/02 02:12:59;;;;;;;52.57;3.67;;;;;;;24.97;60.72;98400.34;7312905;19;129352;-40
2023/07/02 02:15:24;;;;;;;25.87;2.07;;;;;;;24.95;60.78;98404.97;7313641;19;129381;-40
2023/07/02 02:17:50;;;;;;;37.60;2.83;;;;;;;24.98;60.57;98406.41;7311844;19;129367;-41
2023/07/02 02:20:16;;;;;;;31.35;2.45;;;;;;;24.97;60.38;98408.22;7312597;19;128664;-41
2023/07/02 02:22:41;;;;;;;23.73;1.93;;;;;;;24.98;61.14;98406.41;7310397;19;129372;-38
2023/07/02 02:25:07;;;;;;;57.53;3.87;;;;;;;24.98;60.36;98401.13;7311385;19;129817;-40
2023/07/02 02:27:32;;;;;;;29.23;2.20;;;;;;;24.90;60.79;98393.38;7309609;19;129257;-42
2023/07/02 02:29:58;;;;;;;29.10;2.10;;;;;;;24.96;60.72;98403.97;7313273;19;128787;-40
2023/07/02 02:32:24;;;;;;;47.43;3.53;;;;;;;24.98;60.81;98411.66;7312532;19;129644;-42
2023/07/02 02:34:49;;;;;;;27.57;2.20;;;;;;;24.98;60.87;98414.28;7312610;19;130422;-42
2023/07/02 02:37:14;;;;;;;27.10;2.10;;;;;;;24.88;60.71;98395.38;7312651;19;129841;-39
2023/07/02 02:39:40;;;;;;;39.43;2.90;;;;;;;24.98;60.63;98412.47;7312135;19;128900;-40
2023/07/02 02:42:05;;;;;;;40.20;2.83;;;;;;;24.97;60.72;98416.13;7310775;19;130633;-41
2023/07/02 02:44:32;;;;;;;26.13;1.80;;;;;;;24.97;61.12;98407.41;7312678;19;129331;-39
2023/07/02 02:46:57;;;;;;;;;;;;;;;25.06;60.76;98414.16;7312402;19;130582;-40
2023/07/02 02:49:22;;;;;;;39.40;2.90;;;;;;;24.89;61.01;98391.78;7312875;19;128965;-40
2023/07/02 02:51:48;;;;;;;35.00;2.53;;;;;;;24.99;61.12;98408.84;7312296;19;130644;-42
2023/07/02 02:54:13;;;;;;;24.10;2.00;;;;;;;24.91;60.92;98400.25;7313363;19;130182;-40
2023/07/02 02:56:38;;;;;;;24.97;1.80;;;;;;;24.97;60.37;98410.03;7313115;19;129172;-41
2023/07/02 02:59:04;;;;;;;25.07;2.07;;;;;;;24.97;60.37;98416.13;7313223;19;128985;-41
2023/07/02 03:01:30;;;;;;;35.87;2.60;;;;;;;24.97;60.83;98415.31;7309495;19;130067;-41
2023/07/02 03:03:58;;;;;;;39.35;2.78;;;;;;;24.95;60.76;98417.28;7310118;19;130158;-40
2023/07/02 03:06:24;;;;;;;34.35;2.65;;;;;;;24.95;60.62;98417.28;7309339;19;129490;-42
2023/07/02 03:08:50;;;;;;;31.13;2.30;;;;;;;24.97;60.77;98420.56;7312565;19;129316;-40
2023/07/02 03:11:15;;;;;;;35.17;2.53;;;;;;;24.97;60.41;98415.31;7310378;19;129239;-42
2023/07/02 03:13:40;;;;;;;29.80;2.30;;;;;;;24.97;60.82;98415.31;7311350;19;129003;-40
2023/07/02 03:16:06;;;;;;;28.93;2.30;;;;;;;24.98;60.76;98412.47;7311724;19;129713;-40
2023/07/02 03:18:32;;;;;;;30.63;2.23;;;;;;;24.93;60.77;98419.28;7308308;19;129265;-39
2023/07/02 03:20:57;;;;;;;29.90;2.43;;;;;;;24.98;60.52;98427.44;7310494;19;128887;-39
2023/07/02 03:23:23;;;;;;;27.83;2.17;;;;;;;24.96;60.76;98424.16;7311151;19;129176;-39
2023/07/02 03:25:48;;;;;;;13.20;1.27;;;;;;;24.96;60.95;98419.75;7309452;19;129433;-41
2023/07/02 03:28:14;;;;;;;36.10;2.30;;;;;;;24.96;60.78;98418.91;7307868;19;129099;-40
2023/07/02 03:30:39;;;;;;;43.13;2.93;;;;;;;24.97;60.42;98420.56;7308109;19;129461;-39
2023/07/02 03:33:05;;;;;;;24.00;2.00;;;;;;;24.98;60.35;98427.44;7313675;19;129260;-42
2023/07/02 03:35:30;;;;;;;23.70;1.87;;;;;;;24.87;60.38;98415.63;7318004;19;130420;-41
2023/07/02 03:37:57;;;;;;;34.53;2.40;;;;;;;24.98;60.74;98424.81;7316116;19;129015;-39
2023/07/02 03:40:23;;;;;;;41.33;3.08;;;;;;;24.97;60.91;98420.56;7317441;19;129252;-40
2023/07/02 03:42:48;;;;;;;29.23;2.13;;;;;;;24.97;61.14;98425.81;7317828;19;129554;-41
2023/07/02 03:45:13;;;;;;;26.23;2.20;;;;;;;24.97;60.42;98437.16;7317558;19;129508;-39
2023/07/02 03:47:39;;;;;;;40.30;2.57;;;;;;;24.97;60.84;98431.06;7316335;19;129257;-41
2023/07/02 03:50:04;;;;;;;28.27;2.20;;;;;;;24.96;60.99;98434.69;7316061;19;129617;-40
2023/07/02 03:52:30;;;;;;;29.70;2.20;;;;;;;24.98;60.63;98440.59;7313838;19;129067;-40
2023/07/02 03:54:55;;;;;;;10.57;1.23;;;;;;;24.97;60.59;98439.78;7317822;19;129598;-41
2023/07/02 03:57:20;;;;;;;53.77;3.50;;;;;;;24.98;60.69;98448.47;7316839;19;129208;-42
2023/07/02 03:59:46;;;;;;;49.13;3.57;;;;;;;24.97;60.44;98454.75;7317430;19;129217;-38
2023/07/02 04:02:11;;;;;;;33.43;2.27;;;;;;;24.97;60.38;98468.72;7316035;19;129287;-39
2023/07/02 04:04:37;;;;;;;37.20;2.60;;;;;;;24.98;60.81;98469.50;7316723;19;129210;-42
2023/07/02 04:07:02;;;;;;;25.17;1.83;;;;;;;24.96;60.43;98474.97;7316142;19;129212;-41
2023/07/02 04:09:27;;;;;;;37.43;2.73;;;;;;;24.96;60.50;98477.59;7317704;19;129306;-40
2023/07/02 04:11:53;;;;;;;31.43;2.37;;;;;;;24.98;60.63;98485.28;7316712;19;129030;-40
2023/07/02 04:14:18;;;;;;;33.77;2.40;;;;;;;24.98;61.00;98485.28;7316869;19;129216;-41
2023/07/02 04:16:45;;;;;;;33.97;2.20;;;;;;;24.95;60.75;98477.78;7315058;19;129285;-40
2023/07/02 04:19:10;;;;;;;13.88;1.23;;;;;;;24.98;60.77;98490.53;7317339;19;128891;-42
2023/07/02 04:21:35;;;;;;;23.77;1.83;;;;;;;24.98;60.85;98490.53;7316665;19;130558;-39
2023/07/02 04:24:01;;;;;;;32.17;2.10;;;;;;;24.97;61.00;98487.13;7317471;19;131114;-40
2023/07/02 04:26:26;;;;;;;24.47;1.87;;;;;;;24.97;61.19;98491.56;7315570;19;128827;-40
2023/07/02 04:28:54;;;;;;;37.63;2.73;;;;;;;24.97;60.78;98488.94;7318152;19;129397;-40
2023/07/02 04:31:19;;;;;;;40.85;2.97;;;;;;;24.98;60.47;98508.94;7315798;19;129229;-39
2023/07/02 04:33:44;;;;;;;20.07;1.73;;;;;;;24.98;60.71;98508.94;7316215;19;129093;-40
2023/07/02 04:36:10;;;;;;;23.73;1.83;;;;;;;24.98;61.10;98501.06;7316772;19;129905;-41
2023/07/02 04:38:35;;;;;;;34.23;2.27;;;;;;;24.98;60.95;98508.94;7314055;19;129679;-39
2023/07/02 04:41:04;;;;;;;11.73;1.10;;;;;;;24.97;60.53;98502.06;7314533;19;129272;-39
2023/07/02 04:43:31;;;;;;;42.83;3.00;;;;;;;24.97;61.18;98517.84;7313498;19;129199;-39
2023/07/02 04:45:57;;;;;;;35.97;2.72;;;;;;;24.98;60.45;98511.59;7314381;19;129202;-41
2023/07/02 04:48:22;;;;;;;49.37;3.50;;;;;;;24.91;60.68;98502.81;7314175;19;129282;-42
2023/07/02 04:50:48;;;;;;;54.63;3.73;;;;;;;25.00;60.42;98520.09;7311813;19;129012;-40
2023/07/02 04:53:13;;;;;;;28.93;2.03;;;;;;;24.99;61.09;98529.00;7315279;19;129249;-38
2023/07/02 04:55:38;;;;;;;26.93;1.93;;;;;;;24.98;60.97;98527.38;7316669;19;129783;-42
2023/07/02 04:58:04;;;;;;;26.50;2.00;;;;;;;24.98;60.74;98532.63;7314909;19;129007;-39
2023/07/02 05:00:29;;;;;;;60.53;4.10;;;;;;;24.96;60.75;98530.19;7314275;19;129279;-39
2023/07/02 05:02:54;;;;;;;42.30;2.97;;;;;;;24.99;61.08;98535.06;7315383;19;129380;-41
2023/07/02 05:05:20;;;;;;;34.37;2.57;;;;;;;24.97;61.00;98526.56;7315023;19;129216;-41
2023/07/02 05:07:45;;;;;;;29.03;2.20;;;;;;;24.87;60.39;98504.19;7314713;19;129013;-43
2023/07/02 05:10:10;;;;;;;12.47;1.13;;;;;;;24.98;60.92;98524.72;7314961;19;129241;-41
2023/07/02 05:12:36;;;;;;;22.57;1.77;;;;;;;24.98;60.62;98537.88;7315294;19;130429;-42
2023/07/02 05:15:01;;;;;;;32.63;2.40;;;;;;;24.97;60.41;98526.56;7315815;19;129064;-42
2023/07/02 05:17:27;;;;;;;34.00;2.43;;;;;;;24.97;60.47;98531.81;7314533;19;128873;-39
2023/07/02 05:19:52;;;;;;;66.77;4.67;;;;;;;24.99;60.65;98534.25;7314187;19;129719;-41
2023/07/02 05:22:18;;;;;;;42.10;2.93;;;;;;;24.98;60.55;98543.13;7313479;19;129311;-41
2023/07/02 05:24:43;;;;;;;32.50;2.17;;;;;;;24.95;61.09;98533.81;7315492;19;129117;-41
2023/07/02 05:27:09;;;;;;;21.67;1.57;;;;;;;24.98;61.13;98538.72;7312911;19;129026;-40
2023/07/02 05:29:34;;;;;;;30.27;2.23;;;;;;;24.95;60.51;98533.81;7315441;19;129543;-40
2023/07/02 05:32:00;;;;;;;28.13;2.07;;;;;;;24.99;60.77;98539.53;7314421;19;129654;-42
2023/07/02 05:34:25;;;;;;;19.37;1.60;;;;;;;24.99;61.18;98539.53;7314909;19;129039;-41
2023/07/02 05:36:51;;;;;;;39.90;2.97;;;;;;;24.97;61.20;98541.53;7314504;19;130247;-38
2023/07/02 05:39:16;;;;;;;19.37;1.53;;;;;;;24.97;60.85;98552.03;7315327;19;130664;-40
2023/07/02 05:41:41;;;;;;;27.70;1.90;;;;;;;24.97;61.16;98544.16;7312608;19;129400;-39
2023/07/02 05:44:07;;;;;;;26.17;1.87;;;;;;;24.94;61.07;98547.94;7313805;19;129485;-40
2023/07/02 05:46:32;;;;;;;28.97;2.07;;;;;;;24.98;60.58;98553.66;7313310;19;129555;-42
2023/07/02 05:48:57;;;;;;;32.90;2.30;;;;;;;24.99;61.05;98560.56;7314399;19;129040;-38
2023/07/02 05:51:23;;;;;;;40.23;2.80;;;;;;;24.87;61.13;98544.47;7314478;19;129834;-41
2023/07/02 05:53:50;;;;;;;35.53;2.53;;;;;;;24.98;61.21;98558.91;7314226;19;128811;-42
2023/07/02 05:56:15;;;;;;;29.35;2.17;;;;;;;24.97;60.70;98567.81;7314398;19;129021;-41
2023/07/02 05:58:41;;;;;;;23.10;1.67;;;;;;;24.98;60.82;98562.38;7311849;19;129838;-40
2023/07/02 06:01:06;;;;;;;26.37;1.90;;;;;;;24.96;60.37;98561.75;7313153;19;130542;-42
2023/07/02 06:03:32;;;;;;;24.43;1.87;;;;;;;24.98;61.03;98558.91;7314042;19;129238;-42
2023/07/02 06:05:57;;;;;;;31.97;2.40;;;;;;;24.96;60.66;98551.22;7312749;19;129097;-41
2023/07/02 06:08:23;;;;;;;29.80;2.20;;;;;;;24.95;61.12;98554.03;7312840;19;129453;-41
2023/07/02 06:10:48;;;;;;;42.23;2.93;;;;;;;24.96;60.63;98560.91;7311518;19;129759;-40
2023/07/02 06:13:14;;;;;;;25.03;1.87;;;;;;;24.98;60.87;98569.44;7313264;19;130158;-41
2023/07/02 06:15:40;;;;;;;23.90;1.80;;;;;;;24.96;61.15;98571.44;7313406;19;128958;-41
2023/07/02 06:18:06;;;;;;;38.95;2.45;;;;;;;24.95;60.78;98578.53;7310916;19;129822;-41
2023/07/02 06:20:31;;;;;;;28.40;2.10;;;;;;;24.97;60.79;98573.91;7312620;19;129832;-41
2023/07/02 06:22:57;;;;;;;32.60;2.30;;;;;;;24.95;60.46;98575.06;7314695;19;129268;-39
2023/07/02 06:25:22;;;;;;;39.83;2.83;;;;;;;24.98;60.53;98579.97;7312117;19;128838;-41
2023/07/02 06:27:48;;;;;;;29.83;2.13;;;;;;;24.97;61.07;98575.72;7312273;19;129131;-41
2023/07/02 06:30:13;;;;;;;48.43;3.53;;;;;;;24.98;60.49;98579.97;7312020;19;129581;-37
2023/07/02 06:32:38;;;;;;;22.43;1.70;;;;;;;24.95;60.61;98580.34;7314269;19;130435;-41
2023/07/02 06:35:06;;;;;;;26.03;1.87;;;;;;;24.97;61.18;98583.59;7313956;19;129543;-40
2023/07/02 06:37:31;;;;;;;28.15;1.95;;;;;;;24.96;60.46;98587.22;7312191;19;130113;-41
2023/07/02 06:39:57;;;;;;;40.40;2.77;;;;;;;24.97;60.79;98588.84;7312273;19;131306;-40
2023/07/02 06:42:22;;;;;;;37.67;2.63;;;;;;;24.98;60.34;98595.72;7312585;19;129300;-42
2023/07/02 06:44:47;;;;;;;35.43;2.53;;;;;;;24.97;61.12;98596.75;7313029;19;129128;-41
2023/07/02 06:47:13;;;;;;;27.90;1.90;;;;;;;24.97;60.83;98599.38;7310012;19;129435;-42
2023/07/02 06:49:38;;;;;;;21.40;1.53;;;;;;;24.97;60.67;98594.13;7313639;19;129244;-41
2023/07/02 06:52:04;;;;;;;18.27;1.43;;;;;;;24.97;60.88;98591.50;7310495;19;129049;-40
2023/07/02 06:54:29;;;;;;;34.50;2.60;;;;;;;24.94;60.65;98590.03;7313505;19;129137;-42
2023/07/02 06:56:54;;;;;;;38.13;2.53;;;;;;;24.97;61.11;98588.84;7311854;19;130901;-41
2023/07/02 06:59:22;;;;;;;38.63;2.70;;;;;;;24.97;60.86;98578.34;7312761;19;129174;-40
2023/07/02 07:01:49;;;;;;;35.25;2.30;;;;;;;24.91;60.90;98582.50;7308481;19;130674;-41
2023/07/02 07:04:14;;;;;;;41.17;2.70;;;;;;;24.97;61.19;98594.13;7307891;19;129271;-39
2023/07/02 07:06:40;;;;;;;43.37;2.70;;;;;;;24.94;61.07;98591.88;7305738;19;130882;-39
2023/07/02 07:09:05;;;;;;;52.07;3.27;;;;;;;24.98;61.03;98585.22;7305976;19;129925;-41
2023/07/02 07:11:31;;;;;;;42.40;2.70;;;;;;;24.96;61.24;98590.66;7306299;19;130249;-41
2023/07/02 07:13:56;;;;;;;57.03;3.67;;;;;;;24.97;60.87;98588.84;7306491;19;129361;-40
2023/07/02 07:16:21;;;;;;;50.87;3.40;;;;;;;24.85;61.23;98574.56;7308044;19;129376;-42
2023/07/02 07:18:47;;;;;;;48.90;3.27;;;;;;;24.97;60.95;98587.06;7306977;19;129708;-42
2023/07/02 07:21:13;;;;;;;23.53;1.77;;;;;;;24.96;60.91;98588.03;7311332;19;129558;-41
2023/07/02 07:23:39;;;;;;;26.03;1.80;;;;;;;24.96;61.24;98589.84;7311283;19;128980;-40
2023/07/02 07:26:04;;;;;;;27.05;2.10;;;;;;;24.97;60.92;98588.84;7310787;19;129878;-41
2023/07/02 07:28:30;;;;;;;27.67;2.00;;;;;;;24.98;61.22;98585.22;7308646;19;129061;-40
2023/07/02 07:30:55;;;;;;;28.20;1.93;;;;;;;24.97;60.54;98583.59;7310620;19;129427;-39
2023/07/02 07:33:20;;;;;;;27.97;2.17;;;;;;;24.96;61.17;98588.03;7311409;19;128963;-39
2023/07/02 07:35:46;;;;;;;59.77;3.90;;;;;;;24.94;61.36;98583.97;7310721;19;130236;-41
2023/07/02 07:38:14;;;;;;;38.87;2.37;;;;;;;24.96;61.12;98592.47;7309948;19;129565;-39
2023/07/02 07:40:40;;;;;;;43.63;2.78;;;;;;;24.95;60.53;98591.69;7309000;19;129287;-39
2023/07/02 07:43:05;;;;;;;31.57;2.23;;;;;;;24.84;60.53;98568.47;7311183;19;128853;-42
2023/07/02 07:45:30;;;;;;;23.80;1.77;;;;;;;24.96;60.52;98587.22;7311191;19;130033;-38
2023/07/02 07:47:56;;;;;;;51.63;3.37;;;;;;;24.97;61.12;98588.84;7305480;19;129692;-41
2023/07/02 07:50:21;;;;;;;13.93;1.27;;;;;;;24.94;60.50;98587.41;7309573;19;129018;-41
2023/07/02 07:52:48;;;;;;;34.30;2.47;;;;;;;24.85;61.02;98567.50;7311097;19;128952;-41
2023/07/02 07:55:13;;;;;;;25.02;1.77;;;;;;;24.96;60.51;98592.47;7310053;19;129407;-38
2023/07/02 07:57:39;;;;;;;27.70;1.90;;;;;;;24.96;60.93;98584.56;7309771;19;130648;-42
2023/07/02 08:00:09;;;;;;;55.67;4.03;;;;;;;24.97;60.54;98583.59;7308610;19;129794;-41
2023/07/02 08:02:35;;;;;;;25.20;1.65;;;;;;;24.95;60.36;98585.59;7310663;19;129462;-40
2023/07/02 08:05:01;;;;;;;31.47;2.17;;;;;;;24.96;60.85;98592.47;7310136;19;129270;-40
2023/07/02 08:07:26;;;;;;;17.37;1.47;;;;;;;24.95;60.56;98596.13;7307974;19;130203;-40
2023/07/02 08:09:51;;;;;;;29.53;2.33;;;;;;;24.95;60.55;98590.84;7309557;19;128960;-39
2023/07/02 08:12:17;;;;;;;28.23;2.07;;;;;;;24.97;61.17;98594.13;7309469;19;129012;-42
2023/07/02 08:14:42;;;;;;;28.67;1.93;;;;;;;24.96;60.87;98592.47;7309008;19;129318;-40
2023/07/02 08:17:07;;;;;;;23.93;1.63;;;;;;;24.96;61.09;98587.22;7310420;19;130371;-41
2023/07/02 08:19:33;;;;;;;22.83;1.77;;;;;;;24.95;60.56;98585.59;7311513;19;128938;-39
2023/07/02 08:21:58;;;;;;;37.77;2.47;;;;;;;24.96;61.20;98592.47;7315342;19;128930;-41
2023/07/02 08:24:23;;;;;;;45.07;2.93;;;;;;;24.93;61.20;98592.84;7315620;19;129707;-41
2023/07/02 08:26:49;;;;;;;35.07;2.53;;;;;;;24.96;60.95;98595.09;7314902;19;131059;-42
2023/07/02 08:29:15;;;;;;;29.73;2.07;;;;;;;24.97;60.84;98604.63;7315206;19;129004;-39
2023/07/02 08:31:41;;;;;;;23.23;1.70;;;;;;;24.96;60.70;98602.97;7315505;19;129073;-39
2023/07/02 08:34:06;;;;;;;15.10;1.20;;;;;;;24.88;60.84;98589.94;7316000;19;130302;-43
2023/07/02 08:36:31;;;;;;;21.97;1.60;;;;;;;24.97;61.31;98607.28;7315479;19;129708;-41
2023/07/02 08:38:57;;;;;;;33.97;2.30;;;;;;;24.96;60.79;98611.69;7315002;19;129123;-41
2023/07/02 08:41:23;;;;;;;35.67;2.57;;;;;;;24.94;60.89;98608.44;7312682;19;129357;-41
2023/07/02 08:43:49;;;;;;;41.05;2.70;;;;;;;24.96;61.21;98613.50;7315757;19;131175;-40
2023/07/02 08:46:16;;;;;;;20.10;1.67;;;;;;;24.96;61.00;98610.88;7315488;19;129345;-39
2023/07/02 08:48:41;;;;;;;4.43;0.80;;;;;;;24.97;61.34;98615.16;7314168;19;129034;-38
2023/07/02 08:51:07;;;;;;;23.27;1.70;;;;;;;24.97;60.79;98620.41;7315289;19;129072;-40
2023/07/02 08:53:33;;;;;;;9.23;0.90;;;;;;;24.85;60.55;98592.97;7316112;19;128994;-41
2023/07/02 08:56:00;;;;;;;31.80;2.40;;;;;;;24.94;61.06;98610.28;7316358;19;129786;-41
2023/07/02 08:58:25;;;;;;;;;;;;;;;25.05;61.11;98612.41;7313261;19;129347;-40
2023/07/02 09:01:11;;;;;;;28.73;2.10;;;;;;;25.00;60.90;98617.41;7315463;19;130358;-42
2023/07/02 09:03:38;;;;;;;23.83;1.60;;;;;;;24.94;60.86;98618.94;7316658;19;129975;-40
2023/07/02 09:06:04;;;;;;;26.17;2.03;;;;;;;24.95;60.90;98617.16;7314431;19;129283;-37
2023/07/02 09:08:30;;;;;;;29.85;2.22;;;;;;;24.96;61.24;98608.25;7312898;19;129075;-41
2023/07/02 09:11:16;;;;;;;37.97;2.47;;;;;;;24.98;60.84;98606.25;7315249;19;129234;-43
2023/07/02 09:13:49;;;;;;;24.02;1.77;;;;;;;24.95;60.75;98607.44;7315751;19;130819;-38
2023/07/02 09:16:36;;;;;;;24.67;1.63;;;;;;;24.98;60.79;98616.78;7315590;19;129420;-42
2023/07/02 09:19:01;;;;;;;22.90;1.75;;;;;;;24.95;61.20;98617.16;7314639;19;129159;-43
2023/07/02 09:21:28;;;;;;;34.70;2.40;;;;;;;24.96;61.13;98618.75;7315599;19;129611;-41
2023/07/02 09:23:54;;;;;;;41.90;2.97;;;;;;;24.93;60.66;98614.72;7315023;19;129389;-43
2023/07/02 09:26:23;;;;;;;34.07;2.47;;;;;;;24.94;61.02;98616.31;7314416;19;129514;-40
2023/07/02 09:28:49;;;;;;;50.30;3.33;;;;;;;24.94;61.06;98633.94;7310962;19;128975;-42
2023/07/02 09:31:14;;;;;;;30.70;2.23;;;;;;;24.94;60.93;98621.59;7313181;19;129502;-39
2023/07/02 09:33:40;;;;;;;27.27;1.90;;;;;;;24.95;61.16;98625.88;7314732;19;130070;-42
2023/07/02 09:36:05;;;;;;;26.00;1.90;;;;;;;24.96;60.95;98626.66;7315354;19;129217;-41
2023/07/02 09:38:31;;;;;;;25.20;1.90;;;;;;;24.93;60.51;98619.13;7311952;19;129026;-41
2023/07/02 09:40:56;;;;;;;30.73;2.30;;;;;;;24.97;61.31;98633.56;7313550;19;129068;-43
2023/07/02 09:43:23;;;;;;;41.23;3.00;;;;;;;24.95;60.75;98622.41;7314744;19;129122;-42
2023/07/02 09:45:51;;;;;;;28.85;2.08;;;;;;;24.94;61.41;98631.31;7312415;19;129647;-40
2023/07/02 09:48:21;;;;;;;34.88;2.28;;;;;;;24.93;60.66;98624.41;7312834;19;129116;-40
2023/07/02 09:50:49;;;;;;;25.73;1.77;;;;;;;24.95;61.37;98633.75;7313547;19;129503;-41
2023/07/02 09:53:14;;;;;;;9.90;0.98;;;;;;;24.95;61.36;98631.13;7314274;19;129551;-41
2023/07/02 09:55:42;;;;;;;31.03;2.17;;;;;;;24.96;60.91;98642.44;7314989;19;129349;-43
2023/07/02 09:58:08;;;;;;;25.38;1.95;;;;;;;24.93;60.97;98637.53;7313855;19;129192;-42
2023/07/02 10:00:34;;;;;;;31.10;2.30;;;;;;;24.95;60.92;98622.41;7312240;19;129122;-41
2023/07/02 10:03:00;;;;;;;27.30;1.77;;;;;;;24.94;61.20;98632.09;7314343;19;129697;-39
2023/07/02 10:05:27;;;;;;;41.00;2.80;;;;;;;24.95;61.22;98632.94;7313918;19;130322;-40
2023/07/02 10:07:53;;;;;;;31.02;2.25;;;;;;;24.95;60.71;98638.19;7311311;19;129627;-39
2023/07/02 10:10:31;;;;;;;65.10;4.50;;;;;;;24.97;61.25;98625.69;7312925;19;129008;-39
2023/07/02 10:12:57;;;;;;;31.63;2.17;;;;;;;24.94;61.05;98631.31;7313722;19;129150;-39
2023/07/02 10:15:28;;;;;;;40.17;2.70;;;;;;;24.94;60.75;98615.53;7312393;19;130501;-38
2023/07/02 10:17:57;;;;;;;25.27;1.83;;;;;;;24.84;60.91;98617.63;7311729;19;129169;-39
2023/07/02 10:20:37;;;;;;;60.10;4.30;;;;;;;24.93;61.13;98619.97;7313693;19;128933;-39
2023/07/02 10:23:07;;;;;;;27.63;1.90;;;;;;;24.94;60.68;98628.69;7313589;19;129070;-37
2023/07/02 10:25:37;;;;;;;20.48;1.77;;;;;;;24.87;61.46;98627.78;7313615;19;129930;-40
2023/07/02 10:28:22;;;;;;;19.60;1.52;;;;;;;24.96;61.03;98635.38;7310828;19;129062;-39
2023/07/02 10:30:48;;;;;;;26.38;1.90;;;;;;;24.94;61.29;98626.03;7313230;19;129217;-39
2023/07/02 10:33:15;;;;;;;30.77;2.13;;;;;;;24.95;61.10;98632.94;7313379;19;129098;-40
2023/07/02 10:35:47;;;;;;;31.33;2.15;;;;;;;24.95;61.35;98622.41;7314078;19;129352;-40
2023/07/02 10:38:20;;;;;;;24.42;1.70;;;;;;;24.95;61.44;98619.78;7311860;19;128968;-41
2023/07/02 10:40:45;;;;;;;29.65;2.05;;;;;;;24.92;60.97;98617.53;7312766;19;128771;-39
2023/07/02 10:43:11;;;;;;;24.00;1.77;;;;;;;24.84;61.47;98610.53;7311098;19;129106;-40
2023/07/02 10:45:37;;;;;;;26.37;1.83;;;;;;;24.94;60.95;98629.47;7314094;19;129261;-40
2023/07/02 10:48:09;;;;;;;28.27;1.97;;;;;;;24.96;61.03;98624.84;7310868;19;129668;-38
2023/07/02 10:50:34;;;;;;;28.58;2.08;;;;;;;24.94;60.56;98631.31;7311571;19;129334;-39
2023/07/02 10:52:59;;;;;;;26.67;1.90;;;;;;;24.94;60.60;98629.47;7313321;19;129999;-38
2023/07/02 10:55:27;;;;;;;42.10;2.97;;;;;;;24.83;60.81;98613.34;7312270;19;129186;-40
2023/07/02 10:58:07;;;;;;;29.20;2.20;;;;;;;24.94;61.42;98626.03;7310635;19;128976;-39
2023/07/02 11:00:42;;;;;;;39.30;2.90;;;;;;;24.94;60.66;98631.31;7310207;19;130044;-39
2023/07/02 11:03:19;;;;;;;28.88;2.15;;;;;;;24.95;60.97;98630.28;7310178;19;130404;-37
2023/07/02 11:05:44;;;;;;;28.85;2.08;;;;;;;24.94;61.29;98620.78;7312013;19;130125;-39
2023/07/02 11:08:10;;;;;;;23.63;1.73;;;;;;;24.92;60.77;98612.25;7310352;19;129497;-39
2023/07/02 11:10:35;;;;;;;22.03;1.57;;;;;;;24.83;60.60;98601.03;7310900;19;129708;-41
2023/07/02 11:13:14;;;;;;;25.07;1.83;;;;;;;24.93;61.48;98613.88;7312046;19;128961;-40